Time;durP1;ratioP1;P1;durP2;ratioP2;P2;SDS_P1;SDS_P2;PMS_P1;PMS_P2;Temp;Humidity;BMP_temperature;BMP_pressure;BME280_temperature;BME280_humidity;BME280_pressure;Samples;Min_cycle;Max_cycle;Signal;HPM_P1;HPM_P2
2023/09/25 00:01:47;;;;;;;2.93;1.77;;;;;;;14.98;68.77;101679.91;5087945;28;20262;-73
2023/09/25 00:04:15;;;;;;;2.00;1.90;;;;;;;14.90;69.16;101684.25;5091415;28;20218;-72
2023/09/25 00:06:44;;;;;;;3.37;1.77;;;;;;;14.86;69.69;101679.06;5091876;28;20205;-72
2023/09/25 00:09:12;;;;;;;2.97;2.07;;;;;;;14.82;69.59;101687.75;5088823;28;20201;-72
2023/09/25 00:11:40;;;;;;;2.57;2.03;;;;;;;14.79;70.17;101693.78;5089794;28;20610;-72
2023/09/25 00:14:08;;;;;;;2.33;1.70;;;;;;;14.79;69.69;101693.78;5090677;28;20224;-73
2023/09/25 00:16:36;;;;;;;4.10;2.40;;;;;;;14.78;70.17;101699.00;5086988;28;20205;-70
2023/09/25 00:19:05;;;;;;;2.97;2.20;;;;;;;14.80;70.17;101700.72;5089491;28;20609;-72
2023/09/25 00:21:34;;;;;;;2.63;1.93;;;;;;;14.81;70.07;101699.84;5085093;28;20201;-71
2023/09/25 00:24:04;;;;;;;3.83;2.10;;;;;;;14.83;69.89;101703.28;5091451;28;20193;-70
2023/09/25 00:26:32;;;;;;;3.70;2.10;;;;;;;14.83;70.01;101705.88;5089890;28;20212;-70
2023/09/25 00:29:00;;;;;;;2.95;1.85;;;;;;;14.85;70.22;101698.97;5087665;28;20208;-70
2023/09/25 00:31:28;;;;;;;3.63;2.05;;;;;;;14.86;69.61;101700.69;5091585;28;20204;-71
2023/09/25 00:33:56;;;;;;;2.67;1.93;;;;;;;14.78;70.24;101686.88;5088723;28;20572;-71
2023/09/25 00:36:25;;;;;;;2.53;2.00;;;;;;;14.77;70.08;101697.28;5087466;28;20245;-67
2023/09/25 00:38:53;;;;;;;2.10;1.90;;;;;;;14.76;70.30;101698.97;5080598;28;20268;-72
2023/09/25 00:41:22;;;;;;;3.40;1.70;;;;;;;14.73;70.45;101694.69;5087914;28;20201;-71
2023/09/25 00:43:50;;;;;;;2.40;1.87;;;;;;;14.74;70.36;101698.16;5091453;28;20236;-71
2023/09/25 00:46:18;;;;;;;4.87;2.03;;;;;;;14.78;70.11;101704.19;5089343;28;20212;-72
2023/09/25 00:48:48;;;;;;;4.00;1.90;;;;;;;14.79;70.02;101705.91;5091075;28;20667;-72
2023/09/25 00:51:17;;;;;;;3.00;1.97;;;;;;;14.73;70.14;101692.09;5090644;28;20203;-70
2023/09/25 00:53:47;;;;;;;1.80;1.70;;;;;;;14.66;70.10;101694.72;5087946;28;20235;-70
2023/09/25 00:56:15;;;;;;;3.00;1.77;;;;;;;14.59;70.67;101693.84;5085661;28;20205;-71
2023/09/25 00:58:45;;;;;;;3.67;1.80;;;;;;;14.53;71.18;101690.41;5087747;28;20224;-69
2023/09/25 01:01:13;;;;;;;3.60;1.83;;;;;;;14.50;71.47;101686.91;5090250;28;20205;-73
2023/09/25 01:03:41;;;;;;;5.93;2.33;;;;;;;14.49;71.51;101685.22;5087588;28;20292;-71
2023/09/25 01:06:09;;;;;;;2.10;1.70;;;;;;;14.51;71.34;101693.00;5094330;28;20211;-67
2023/09/25 01:08:38;;;;;;;5.13;1.77;;;;;;;14.49;71.02;101699.88;5095247;28;20197;-71
2023/09/25 01:11:07;;;;;;;2.23;1.83;;;;;;;14.43;71.64;101692.97;5090491;28;20239;-71
2023/09/25 01:13:35;;;;;;;2.33;1.50;;;;;;;14.40;71.40;101702.50;5086769;28;20212;-72
2023/09/25 01:16:04;;;;;;;3.20;2.00;;;;;;;14.39;71.74;101696.41;5093527;28;20231;-71
2023/09/25 01:18:33;;;;;;;2.93;1.80;;;;;;;14.41;71.52;101696.44;5091923;28;20208;-71
2023/09/25 01:21:03;;;;;;;2.20;1.50;;;;;;;14.34;71.77;101700.75;5095533;28;20603;-71
2023/09/25 01:23:33;;;;;;;2.20;1.83;;;;;;;14.33;72.21;101699.03;5091523;28;20196;-71
2023/09/25 01:26:01;;;;;;;2.20;2.00;;;;;;;14.28;72.30;101700.75;5094497;28;20201;-71
2023/09/25 01:28:29;;;;;;;2.80;2.00;;;;;;;14.31;72.83;101694.69;5093837;28;20295;-70
2023/09/25 01:30:58;;;;;;;2.90;1.93;;;;;;;14.29;72.38;101689.53;5091358;28;20236;-72
2023/09/25 01:33:26;;;;;;;3.53;2.10;;;;;;;14.28;72.47;101692.97;5087635;28;20683;-72
2023/09/25 01:35:54;;;;;;;2.93;1.80;;;;;;;14.26;73.06;101698.16;5094218;28;20197;-71
2023/09/25 01:38:22;;;;;;;4.37;2.10;;;;;;;14.28;72.91;101700.75;5095806;28;20345;-72
2023/09/25 01:40:52;;;;;;;4.03;2.03;;;;;;;14.26;72.78;101697.31;5089107;28;20211;-71
2023/09/25 01:43:20;;;;;;;5.10;2.27;;;;;;;14.24;72.93;101704.19;5095853;28;20208;-72
2023/09/25 01:45:48;;;;;;;4.40;2.00;;;;;;;14.25;72.98;101690.41;5093700;28;20197;-71
2023/09/25 01:48:16;;;;;;;3.67;1.97;;;;;;;14.28;72.71;101703.34;5081900;28;20530;-72
2023/09/25 01:50:44;;;;;;;4.23;2.13;;;;;;;14.26;72.82;101713.72;5090208;28;20197;-71
2023/09/25 01:53:12;;;;;;;3.07;2.10;;;;;;;14.29;72.68;101706.81;5088270;28;20227;-71
2023/09/25 01:55:42;;;;;;;2.43;2.00;;;;;;;14.24;73.02;101705.06;5091816;28;20655;-71
2023/09/25 01:58:11;;;;;;;2.53;1.97;;;;;;;14.23;73.03;101700.75;5092452;28;20246;-72
2023/09/25 02:00:39;;;;;;;2.23;1.70;;;;;;;14.23;73.08;101705.06;5094247;28;20617;-72
2023/09/25 02:03:07;;;;;;;2.37;1.90;;;;;;;14.20;73.33;101702.47;5093959;28;20200;-71
2023/09/25 02:05:35;;;;;;;2.90;2.07;;;;;;;14.22;73.08;101705.94;5089725;28;20288;-72
2023/09/25 02:08:04;;;;;;;4.43;2.43;;;;;;;14.22;73.04;101701.63;5090143;28;20201;-69
2023/09/25 02:10:36;;;;;;;2.47;2.00;;;;;;;14.25;72.95;101703.38;5086689;28;20239;-71
2023/09/25 02:13:04;;;;;;;3.43;2.10;;;;;;;14.23;73.03;101697.31;5084254;28;20666;-71
2023/09/25 02:15:34;;;;;;;3.23;2.20;;;;;;;14.22;73.24;101701.63;5090443;28;20663;-72
2023/09/25 02:18:03;;;;;;;2.83;2.10;;;;;;;14.17;73.20;101699.88;5093450;28;20669;-72
2023/09/25 02:20:31;;;;;;;3.30;2.23;;;;;;;14.13;73.11;101700.75;5094417;28;20196;-72
2023/09/25 02:22:59;;;;;;;4.70;2.03;;;;;;;14.10;72.99;101695.56;5091770;28;20201;-72
2023/09/25 02:25:27;;;;;;;2.33;2.13;;;;;;;14.09;73.31;101699.03;5090976;28;20207;-71
2023/09/25 02:27:55;;;;;;;2.27;1.60;;;;;;;14.04;73.93;101700.75;5093831;28;20291;-70
2023/09/25 02:30:23;;;;;;;2.73;1.80;;;;;;;13.99;74.33;101699.03;5088213;28;20214;-71
2023/09/25 02:32:52;;;;;;;3.60;2.03;;;;;;;14.02;74.19;101704.19;5091272;28;20541;-72
2023/09/25 02:35:20;;;;;;;3.73;2.40;;;;;;;14.02;74.38;101696.41;5094394;28;20216;-71
2023/09/25 02:37:48;;;;;;;2.77;2.07;;;;;;;14.02;73.97;101698.16;5090800;28;20236;-73
2023/09/25 02:40:16;;;;;;;2.67;2.00;;;;;;;14.04;73.72;101705.94;5093256;28;20281;-72
2023/09/25 02:42:45;;;;;;;2.80;1.93;;;;;;;13.98;74.05;101705.06;5091638;28;20574;-71
2023/09/25 02:45:14;;;;;;;3.27;2.10;;;;;;;13.99;74.34;101708.50;5093016;28;20220;-74
2023/09/25 02:47:43;;;;;;;3.53;1.87;;;;;;;13.97;74.08;101694.69;5093561;28;20201;-74
2023/09/25 02:50:12;;;;;;;2.20;2.00;;;;;;;13.93;74.43;101704.19;5088863;28;20254;-71
2023/09/25 02:52:42;;;;;;;2.30;2.10;;;;;;;13.90;74.32;101704.19;5092888;28;20262;-70
2023/09/25 02:55:10;;;;;;;2.17;1.90;;;;;;;13.85;74.83;101700.75;5091867;28;20545;-71
2023/09/25 02:57:38;;;;;;;3.77;2.13;;;;;;;13.77;75.22;101694.66;5091082;28;20209;-71
2023/09/25 03:00:11;;;;;;;2.60;2.07;;;;;;;13.72;75.41;101693.78;5089294;28;20207;-69
2023/09/25 03:02:40;;;;;;;3.83;2.40;;;;;;;13.72;75.55;101694.66;5090424;28;20822;-72
2023/09/25 03:05:09;;;;;;;2.87;2.10;;;;;;;13.72;75.37;101701.56;5085450;28;20540;-73
2023/09/25 03:07:39;;;;;;;2.87;2.30;;;;;;;13.67;75.88;101704.16;5093161;28;20235;-70
2023/09/25 03:10:09;;;;;;;1.80;1.70;;;;;;;13.63;76.35;101693.78;5093320;28;20201;-72
2023/09/25 03:12:37;;;;;;;3.47;2.57;;;;;;;13.62;75.98;101692.03;5093217;28;20215;-71
2023/09/25 03:15:06;;;;;;;5.43;2.57;;;;;;;13.58;76.41;101679.94;5085591;28;20569;-72
2023/09/25 03:17:35;;;;;;;4.73;2.20;;;;;;;13.58;76.12;101691.16;5086076;28;20193;-71
2023/09/25 03:20:07;;;;;;;4.27;2.43;;;;;;;13.53;76.25;101698.94;5091619;28;20201;-70
2023/09/25 03:22:36;;;;;;;4.93;2.47;;;;;;;13.47;76.46;101693.72;5091240;28;20200;-72
2023/09/25 03:25:06;;;;;;;2.63;2.17;;;;;;;13.45;76.63;101694.59;5092429;28;20207;-71
2023/09/25 03:27:34;;;;;;;3.17;2.17;;;;;;;13.41;76.81;101687.69;5082140;28;20209;-71
2023/09/25 03:30:02;;;;;;;4.50;2.37;;;;;;;13.42;77.21;101694.59;5090402;28;20208;-71
2023/09/25 03:32:31;;;;;;;5.70;2.50;;;;;;;13.41;77.35;101692.88;5086335;28;20655;-72
2023/09/25 03:34:59;;;;;;;4.77;2.50;;;;;;;13.42;77.11;101702.34;5083941;28;20221;-73
2023/09/25 03:37:27;;;;;;;2.10;1.97;;;;;;;13.41;76.75;101701.50;5093844;28;20240;-74
2023/09/25 03:39:55;;;;;;;4.17;2.50;;;;;;;13.40;76.79;101707.53;5094063;28;20257;-71
2023/09/25 03:42:24;;;;;;;4.17;2.10;;;;;;;13.38;77.13;101709.25;5093567;28;20699;-71
2023/09/25 03:44:52;;;;;;;6.73;2.13;;;;;;;13.40;77.00;101712.72;5085537;28;20201;-72
2023/09/25 03:47:20;;;;;;;2.33;2.13;;;;;;;13.40;77.37;101724.78;5094091;28;20570;-72
2023/09/25 03:49:48;;;;;;;2.37;2.17;;;;;;;13.38;77.44;101717.00;5092379;28;20237;-71
2023/09/25 03:52:16;;;;;;;2.67;2.00;;;;;;;13.36;77.46;101731.66;5089332;28;20739;-68
2023/09/25 03:54:44;;;;;;;2.87;2.20;;;;;;;13.37;77.42;101722.19;5089127;28;20251;-72
2023/09/25 03:57:12;;;;;;;3.30;2.37;;;;;;;13.39;77.99;101731.69;5085845;28;20200;-71
2023/09/25 03:59:41;;;;;;;2.50;2.07;;;;;;;13.39;77.84;101721.31;5091876;28;20512;-70
2023/09/25 04:02:09;;;;;;;3.70;2.47;;;;;;;13.39;77.40;101734.28;5091811;28;20591;-65
2023/09/25 04:04:37;;;;;;;3.57;2.17;;;;;;;13.39;77.65;101729.09;5088837;28;20207;-69
2023/09/25 04:07:06;;;;;;;5.00;2.57;;;;;;;13.41;77.79;101731.69;5086102;28;20664;-67
2023/09/25 04:09:34;;;;;;;3.30;2.60;;;;;;;13.39;77.61;101731.69;5090847;28;20253;-73
2023/09/25 04:12:03;;;;;;;4.60;3.00;;;;;;;13.41;77.75;101735.16;5089760;28;20229;-77
2023/09/25 04:14:35;;;;;;;6.33;2.77;;;;;;;13.41;77.73;101740.34;5083157;28;20728;-72
2023/09/25 04:17:05;;;;;;;4.67;2.33;;;;;;;13.44;78.08;101742.94;5091484;28;20192;-72
2023/09/25 04:19:33;;;;;;;2.97;2.10;;;;;;;13.43;78.36;101738.59;5092505;28;20246;-71
2023/09/25 04:22:06;;;;;;;12.37;3.30;;;;;;;13.46;78.03;101743.78;5092554;28;20196;-73
2023/09/25 04:24:37;;;;;;;4.63;2.63;;;;;;;13.50;78.06;101747.25;5082242;28;20925;-69
2023/09/25 04:27:05;;;;;;;2.20;2.00;;;;;;;13.53;77.37;101749.88;5091049;28;20216;-74
2023/09/25 04:29:33;;;;;;;4.97;2.60;;;;;;;13.53;77.16;101744.69;5091367;28;20284;-72
2023/09/25 04:32:03;;;;;;;3.43;2.10;;;;;;;13.50;77.18;101742.06;5083514;28;20201;-71
2023/09/25 04:34:35;;;;;;;2.87;1.83;;;;;;;13.49;77.43;101748.13;5089573;28;20679;-72
2023/09/25 04:37:05;;;;;;;3.60;2.53;;;;;;;13.47;77.59;101744.66;5091105;28;20231;-70
2023/09/25 04:39:33;;;;;;;2.83;2.10;;;;;;;13.46;77.93;101751.56;5090486;28;20226;-70
2023/09/25 04:42:01;;;;;;;3.50;2.50;;;;;;;13.45;77.30;101742.06;5091737;28;20212;-72
2023/09/25 04:44:29;;;;;;;5.20;2.20;;;;;;;13.46;77.77;101748.09;5087325;28;20265;-71
2023/09/25 04:46:58;;;;;;;2.50;2.30;;;;;;;13.45;77.17;101751.56;5091796;28;20204;-71
2023/09/25 04:49:26;;;;;;;5.03;2.40;;;;;;;13.41;78.17;101752.41;5089902;28;20200;-71
2023/09/25 04:51:55;;;;;;;2.87;2.00;;;;;;;13.38;77.83;101765.34;5091397;28;20216;-72
2023/09/25 04:54:23;;;;;;;3.77;2.27;;;;;;;13.36;78.05;101761.88;5090515;28;20734;-73
2023/09/25 04:56:51;;;;;;;3.23;2.27;;;;;;;13.37;78.50;101759.31;5090057;28;20224;-71
2023/09/25 04:59:19;;;;;;;3.50;2.30;;;;;;;13.34;78.05;101767.06;5088729;28;20230;-71
2023/09/25 05:01:47;;;;;;;2.20;2.00;;;;;;;13.38;78.39;101767.94;5082548;28;20220;-71
2023/09/25 05:04:16;;;;;;;3.07;2.37;;;;;;;13.37;78.02;101766.22;5090788;28;20232;-73
2023/09/25 05:06:44;;;;;;;6.27;2.43;;;;;;;13.33;78.18;101767.91;5089593;28;20647;-72
2023/09/25 05:09:15;;;;;;;3.13;1.97;;;;;;;13.31;77.99;101766.16;5088530;28;20280;-72
2023/09/25 05:11:43;;;;;;;2.40;2.20;;;;;;;13.33;77.97;101754.97;5087105;28;20272;-72
2023/09/25 05:14:11;;;;;;;6.33;2.17;;;;;;;13.35;78.08;101757.56;5088347;28;20684;-70
2023/09/25 05:16:39;;;;;;;3.67;1.87;;;;;;;13.37;77.99;101761.91;5085047;28;20312;-70
2023/09/25 05:19:07;;;;;;;2.50;2.30;;;;;;;13.36;78.03;101749.78;5092104;28;20204;-69
2023/09/25 05:21:35;;;;;;;3.97;2.57;;;;;;;13.42;77.46;101751.53;5094240;28;20242;-70
2023/09/25 05:24:04;;;;;;;2.00;1.80;;;;;;;13.41;78.09;101755.00;5093667;28;20659;-71
2023/09/25 05:26:37;;;;;;;5.53;1.90;;;;;;;13.36;78.16;101751.50;5093736;28;20244;-69
2023/09/25 05:29:06;;;;;;;3.80;2.23;;;;;;;13.34;78.18;101748.94;5090471;28;20200;-71
2023/09/25 05:31:34;;;;;;;4.90;1.80;;;;;;;13.42;78.02;101755.00;5088538;28;20223;-74
2023/09/25 05:34:02;;;;;;;2.57;1.90;;;;;;;13.46;77.82;101759.31;5089298;28;20914;-73
2023/09/25 05:36:30;;;;;;;4.30;2.23;;;;;;;13.49;77.34;101755.91;5094522;28;20313;-74
2023/09/25 05:38:59;;;;;;;5.63;2.33;;;;;;;13.54;77.01;101757.63;5090435;28;20660;-71
2023/09/25 05:41:27;;;;;;;3.97;2.20;;;;;;;13.56;77.40;101749.03;5091203;28;20295;-71
2023/09/25 05:43:56;;;;;;;2.90;2.30;;;;;;;13.60;76.96;101751.63;5090605;28;20204;-71
2023/09/25 05:46:26;;;;;;;3.13;2.33;;;;;;;13.61;76.57;101755.06;5101288;28;20209;-72
2023/09/25 05:48:57;;;;;;;3.43;2.10;;;;;;;13.63;76.52;101753.38;5086786;28;20205;-71
2023/09/25 05:51:26;;;;;;;4.47;2.03;;;;;;;13.64;76.93;101757.69;5090799;28;20757;-74
2023/09/25 05:53:54;;;;;;;3.60;2.10;;;;;;;13.66;76.22;101746.47;5092254;28;20618;-70
2023/09/25 05:56:22;;;;;;;4.83;2.63;;;;;;;13.69;76.38;101754.22;5089561;28;20481;-71
2023/09/25 05:58:51;;;;;;;2.93;2.20;;;;;;;13.74;76.06;101747.34;5092303;28;20208;-70
2023/09/25 06:01:21;;;;;;;3.87;2.23;;;;;;;13.79;76.30;101747.34;5093338;28;20250;-72
2023/09/25 06:03:49;;;;;;;3.73;1.80;;;;;;;13.82;75.63;101743.91;5093180;28;20562;-72
2023/09/25 06:06:18;;;;;;;6.77;2.13;;;;;;;13.88;75.82;101746.50;5088593;28;20219;-72
2023/09/25 06:08:46;;;;;;;2.83;2.40;;;;;;;13.92;75.71;101737.91;5089725;28;20292;-71
2023/09/25 06:11:14;;;;;;;3.10;2.03;;;;;;;14.02;75.29;101749.97;5090666;28;20205;-69
2023/09/25 06:13:42;;;;;;;3.70;2.30;;;;;;;14.09;74.84;101750.88;5090642;28;20310;-71
2023/09/25 06:16:10;;;;;;;3.33;1.70;;;;;;;14.17;74.56;101750.00;5092560;28;20778;-73
2023/09/25 06:18:40;;;;;;;2.90;1.90;;;;;;;14.27;74.20;101746.56;5094046;28;20303;-71
2023/09/25 06:21:10;;;;;;;5.47;4.70;;;;;;;14.41;73.99;101751.75;5091947;28;20203;-74
2023/09/25 06:23:38;;;;;;;3.40;2.50;;;;;;;14.52;73.44;101741.41;5094163;28;20254;-74
2023/09/25 06:26:07;;;;;;;5.93;2.27;;;;;;;14.63;72.60;101742.25;5093067;28;20605;-71
2023/09/25 06:28:37;;;;;;;4.77;1.90;;;;;;;14.76;72.33;101745.69;5093806;28;20204;-72
2023/09/25 06:31:06;;;;;;;3.10;1.80;;;;;;;14.86;71.64;101750.00;5094010;28;20212;-75
2023/09/25 06:33:34;;;;;;;2.13;1.30;;;;;;;14.97;71.31;101744.78;5093887;28;20204;-71
2023/09/25 06:36:04;;;;;;;3.27;2.10;;;;;;;15.17;71.55;101744.72;5088931;28;20212;-70
2023/09/25 06:38:32;;;;;;;1.93;1.47;;;;;;;15.43;70.17;101745.50;5087777;28;20227;-71
2023/09/25 06:41:00;;;;;;;2.87;1.77;;;;;;;15.77;69.10;101747.97;5092696;28;20639;-71
2023/09/25 06:43:28;;;;;;;2.77;1.60;;;;;;;16.09;67.68;101746.88;5091514;28;20207;-71
2023/09/25 06:45:56;;;;;;;2.28;1.50;;;;;;;16.42;65.83;101744.03;5092306;28;20681;-73
2023/09/25 06:48:24;;;;;;;6.33;1.80;;;;;;;16.83;64.82;101747.16;5085590;28;20627;-72
2023/09/25 06:50:52;;;;;;;2.63;1.40;;;;;;;17.26;62.71;101746.69;5091132;28;20239;-71
2023/09/25 06:53:24;;;;;;;2.00;1.10;;;;;;;17.59;61.76;101750.59;5091223;28;20192;-72
2023/09/25 06:55:52;;;;;;;4.25;1.50;;;;;;;17.86;60.14;101752.88;5087457;28;20769;-72
2023/09/25 06:58:20;;;;;;;3.28;1.23;;;;;;;18.40;58.45;101745.94;5084076;28;20311;-73
2023/09/25 07:00:48;;;;;;;3.13;1.60;;;;;;;18.78;58.65;101740.97;5084123;28;20193;-71
2023/09/25 07:03:24;;;;;;;1.77;1.30;;;;;;;19.68;54.88;101743.50;5091210;28;20204;-72
2023/09/25 07:05:53;;;;;;;2.45;1.17;;;;;;;19.61;52.40;101739.28;5096431;28;20250;-73
2023/09/25 07:08:22;;;;;;;3.38;1.02;;;;;;;19.25;54.41;101744.38;5089679;28;20208;-72
2023/09/25 07:10:50;;;;;;;5.55;1.30;;;;;;;19.08;55.01;101741.25;5086273;28;20201;-71
2023/09/25 07:13:20;;;;;;;3.72;1.45;;;;;;;19.31;54.28;101749.50;5079790;28;20201;-72
2023/09/25 07:15:48;;;;;;;1.85;1.10;;;;;;;19.32;54.28;101747.72;5087046;28;20207;-70
2023/09/25 07:18:17;;;;;;;2.03;1.00;;;;;;;19.14;54.18;101746.34;5088114;28;20220;-71
2023/09/25 07:20:45;;;;;;;4.57;1.30;;;;;;;18.75;55.47;101759.28;5081898;28;20287;-70
2023/09/25 07:23:13;;;;;;;1.75;1.20;;;;;;;18.34;56.66;101763.44;5089475;28;20204;-70
2023/09/25 07:25:42;;;;;;;3.97;1.50;;;;;;;17.91;58.57;101765.84;5082419;28;20251;-70
2023/09/25 07:28:11;;;;;;;3.90;1.20;;;;;;;17.67;59.81;101773.97;5080496;28;20197;-64
2023/09/25 07:30:42;;;;;;;1.58;0.93;;;;;;;18.14;61.19;101765.50;5085595;28;20228;-65
2023/09/25 07:33:12;;;;;;;3.17;1.25;;;;;;;19.96;56.95;101763.81;5079775;28;20296;-65
2023/09/25 07:35:41;;;;;;;1.83;1.10;;;;;;;21.69;50.17;101752.25;5090413;28;20291;-65
2023/09/25 07:38:09;;;;;;;3.25;1.10;;;;;;;22.75;46.33;101746.16;5085704;28;20818;-66
2023/09/25 07:40:37;;;;;;;2.60;1.30;;;;;;;23.06;45.56;101763.50;5079713;28;20220;-63
2023/09/25 07:43:07;;;;;;;5.35;1.20;;;;;;;23.15;44.48;101750.00;5088081;28;20205;-65
2023/09/25 07:45:35;;;;;;;2.03;1.25;;;;;;;22.59;45.19;101744.97;5081966;28;20558;-63
2023/09/25 07:48:05;;;;;;;6.15;1.42;;;;;;;22.42;47.72;101753.41;5089801;28;20196;-65
2023/09/25 07:50:34;;;;;;;2.55;1.33;;;;;;;23.61;45.71;101748.28;5087761;28;20288;-62
2023/09/25 07:53:01;;;;;;;3.40;1.40;;;;;;;24.88;42.28;101750.97;5089184;28;20848;-65
2023/09/25 07:55:30;;;;;;;3.28;1.30;;;;;;;26.17;38.96;101742.31;5085464;28;20261;-65
2023/09/25 07:57:59;;;;;;;4.30;1.17;;;;;;;27.34;36.99;101743.28;5082311;28;20228;-63
2023/09/25 08:00:36;;;;;;;2.33;1.38;;;;;;;27.57;35.27;101738.50;5089530;28;20197;-67
2023/09/25 08:03:06;;;;;;;3.45;1.25;;;;;;;28.30;34.83;101744.06;5090914;28;20204;-68
2023/09/25 08:05:35;;;;;;;1.85;1.23;;;;;;;29.19;33.39;101736.03;5088874;28;20205;-69
2023/09/25 08:08:04;;;;;;;3.05;1.10;;;;;;;29.86;31.83;101731.72;5082984;28;20619;-67
2023/09/25 08:10:33;;;;;;;3.65;1.25;;;;;;;30.12;30.67;101729.13;5081035;28;20788;-73
2023/09/25 08:13:01;;;;;;;4.22;0.93;;;;;;;29.25;30.45;101731.19;5083247;28;20217;-68
2023/09/25 08:15:31;;;;;;;2.47;0.90;;;;;;;28.27;32.88;101737.13;5082476;28;20243;-69
2023/09/25 08:17:59;;;;;;;0.93;0.75;;;;;;;27.04;34.56;101737.84;5085209;28;20212;-69
2023/09/25 08:20:27;;;;;;;2.33;0.73;;;;;;;26.12;36.67;101744.34;5087711;28;20215;-68
2023/09/25 08:22:55;;;;;;;1.40;1.17;;;;;;;25.33;38.31;101747.19;5080795;28;20220;-70
2023/09/25 08:25:24;;;;;;;2.10;0.90;;;;;;;24.85;39.61;101745.81;5081814;28;20300;-67
2023/09/25 08:27:52;;;;;;;1.73;0.80;;;;;;;24.51;39.18;101736.75;5086531;28;20211;-67
2023/09/25 08:30:22;;;;;;;1.67;1.00;;;;;;;23.91;41.05;101734.88;5086945;28;20204;-66
2023/09/25 08:32:53;;;;;;;1.50;1.10;;;;;;;23.72;41.75;101734.75;5082463;28;20697;-65
2023/09/25 08:35:22;;;;;;;2.63;1.10;;;;;;;23.31;42.32;101735.38;5081827;28;20204;-69
2023/09/25 08:37:50;;;;;;;2.70;1.33;;;;;;;23.12;43.10;101735.22;5089460;28;20240;-68
2023/09/25 08:40:19;;;;;;;1.38;0.82;;;;;;;22.94;43.33;101729.75;5087680;28;20201;-67
2023/09/25 08:42:47;;;;;;;1.67;1.30;;;;;;;22.83;44.17;101736.25;5085217;28;20223;-64
2023/09/25 08:45:22;;;;;;;1.25;1.15;;;;;;;22.72;43.83;101729.63;5088665;28;20226;-67
2023/09/25 08:47:51;;;;;;;1.73;1.30;;;;;;;22.71;44.70;101733.19;5087186;28;20196;-68
2023/09/25 08:50:20;;;;;;;2.25;1.00;;;;;;;22.72;43.66;101730.50;5086440;28;20295;-67
2023/09/25 08:52:48;;;;;;;3.50;1.30;;;;;;;22.59;44.44;101731.84;5092829;28;20624;-68
2023/09/25 08:55:16;;;;;;;1.55;0.90;;;;;;;22.54;44.32;101729.38;5089404;28;20200;-67
2023/09/25 08:57:45;;;;;;;2.13;1.02;;;;;;;22.43;44.60;101728.91;5079375;28;20224;-65
2023/09/25 09:00:15;;;;;;;1.17;1.00;;;;;;;22.25;45.24;101733.00;5084432;28;20635;-65
2023/09/25 09:02:44;;;;;;;1.48;0.85;;;;;;;22.21;45.58;101733.16;5085282;28;20209;-69
2023/09/25 09:05:14;;;;;;;1.10;1.00;;;;;;;22.18;44.98;101727.09;5085065;28;20205;-66
2023/09/25 09:07:56;;;;;;;3.22;1.00;;;;;;;22.16;45.48;101721.00;5086542;28;20956;-68
2023/09/25 09:10:24;;;;;;;1.75;1.15;;;;;;;22.12;45.45;101724.63;5088974;28;20269;-70
2023/09/25 09:12:53;;;;;;;1.10;1.00;;;;;;;22.12;46.03;101723.75;5087469;28;20197;-67
2023/09/25 09:15:31;;;;;;;2.58;0.90;;;;;;;22.15;45.87;101729.81;5085691;28;20207;-65
2023/09/25 09:18:00;;;;;;;1.90;1.27;;;;;;;22.16;45.34;101728.88;5084850;28;20314;-67
2023/09/25 09:20:37;;;;;;;1.70;1.10;;;;;;;22.06;45.35;101724.84;5081706;28;20220;-66
2023/09/25 09:23:06;;;;;;;2.70;1.85;;;;;;;21.92;45.98;101716.53;5087490;28;20204;-67
2023/09/25 09:25:35;;;;;;;1.95;1.02;;;;;;;21.81;46.36;101714.25;5087728;28;20211;-65
2023/09/25 09:28:05;;;;;;;2.63;0.95;;;;;;;21.68;46.71;101713.78;5090017;28;20671;-65
2023/09/25 09:30:33;;;;;;;4.13;1.05;;;;;;;21.54;47.26;101712.47;5082576;28;20201;-65
2023/09/25 09:33:02;;;;;;;1.75;0.90;;;;;;;21.40;47.96;101712.91;5085386;28;20205;-66
2023/09/25 09:35:30;;;;;;;2.78;1.30;;;;;;;21.39;48.13;101724.28;5087638;28;20663;-69
2023/09/25 09:38:02;;;;;;;3.35;1.05;;;;;;;21.44;47.70;101718.03;5085703;28;20327;-68
2023/09/25 09:40:30;;;;;;;2.25;1.10;;;;;;;21.54;47.57;101713.38;5093200;28;20302;-66
2023/09/25 09:42:59;;;;;;;1.80;1.10;;;;;;;21.65;47.40;101710.38;5090658;28;20192;-68
2023/09/25 09:45:28;;;;;;;1.52;1.02;;;;;;;21.71;47.44;101708.44;5090585;28;20215;-68
2023/09/25 09:47:58;;;;;;;2.97;1.20;;;;;;;21.83;46.91;101701.06;5086599;28;20232;-70
2023/09/25 09:50:28;;;;;;;3.42;1.05;;;;;;;21.96;46.83;101707.66;5091832;28;20331;-65
2023/09/25 09:52:57;;;;;;;2.20;1.05;;;;;;;21.99;46.46;101710.19;5092105;28;20271;-68
2023/09/25 09:55:32;;;;;;;1.70;1.10;;;;;;;22.00;46.38;101706.66;5089072;28;20204;-70
2023/09/25 09:58:01;;;;;;;3.60;1.13;;;;;;;21.93;46.44;101702.50;5091171;28;20307;-67
2023/09/25 10:00:29;;;;;;;1.67;1.00;;;;;;;21.94;47.03;101705.09;5087697;28;20207;-67
2023/09/25 10:02:57;;;;;;;1.65;1.20;;;;;;;21.96;46.50;101705.03;5091946;28;20201;-68
2023/09/25 10:05:27;;;;;;;1.88;0.98;;;;;;;22.03;45.96;101689.94;5090579;28;20606;-65
2023/09/25 10:08:09;;;;;;;1.65;0.95;;;;;;;22.14;46.27;101691.34;5082158;28;20269;-66
2023/09/25 10:10:39;;;;;;;1.80;1.05;;;;;;;22.28;45.72;101697.91;5093200;28;20219;-68
2023/09/25 10:13:09;;;;;;;1.58;1.08;;;;;;;22.39;45.91;101695.78;5083252;28;20211;-67
2023/09/25 10:15:38;;;;;;;2.83;1.15;;;;;;;22.48;45.27;101687.56;5090546;28;20220;-67
2023/09/25 10:18:07;;;;;;;1.20;1.10;;;;;;;22.53;44.57;101682.97;5090717;28;20746;-67
2023/09/25 10:20:38;;;;;;;1.38;0.85;;;;;;;22.54;44.60;101689.97;5085881;28;20266;-65
2023/09/25 10:23:09;;;;;;;1.73;1.00;;;;;;;22.61;44.47;101680.97;5091917;28;20534;-65
2023/09/25 10:25:51;;;;;;;1.13;0.85;;;;;;;22.72;44.02;101677.06;5086857;28;20246;-68
2023/09/25 10:28:24;;;;;;;4.75;3.28;;;;;;;22.87;43.67;101676.53;5082234;28;20737;-68
2023/09/25 10:30:52;;;;;;;3.42;1.20;;;;;;;22.98;43.60;101682.28;5085517;28;20239;-68
2023/09/25 10:33:22;;;;;;;5.47;1.30;;;;;;;23.05;43.12;101678.50;5091531;28;20200;-67
2023/09/25 10:35:51;;;;;;;2.60;1.15;;;;;;;23.14;42.90;101678.16;5088146;28;20704;-70
2023/09/25 10:38:26;;;;;;;1.10;0.85;;;;;;;23.21;43.52;101676.16;5087520;28;20213;-66
2023/09/25 10:41:03;;;;;;;1.52;0.95;;;;;;;23.29;42.66;101673.22;5091870;28;20226;-66
2023/09/25 10:43:32;;;;;;;1.45;1.02;;;;;;;23.36;42.27;101674.72;5087345;28;20193;-67
2023/09/25 10:46:01;;;;;;;1.55;1.30;;;;;;;23.39;41.48;101674.59;5087335;28;20204;-70
2023/09/25 10:48:31;;;;;;;1.65;0.93;;;;;;;23.40;41.64;101671.03;5088687;28;20699;-66
2023/09/25 10:51:00;;;;;;;4.20;1.20;;;;;;;23.39;41.60;101674.59;5092692;28;20728;-69
2023/09/25 10:53:28;;;;;;;1.10;0.80;;;;;;;23.34;41.23;101672.16;5084546;28;20209;-70
2023/09/25 10:55:56;;;;;;;1.55;1.08;;;;;;;23.30;42.03;101667.03;5083229;28;20232;-69
2023/09/25 10:58:26;;;;;;;1.77;1.00;;;;;;;23.28;41.11;101671.53;5090771;28;20215;-69
2023/09/25 11:00:55;;;;;;;1.30;1.10;;;;;;;23.28;40.91;101661.00;5084785;28;20666;-69
2023/09/25 11:03:25;;;;;;;1.55;1.00;;;;;;;23.27;41.56;101665.41;5089547;28;20942;-69
2023/09/25 11:05:54;;;;;;;1.15;0.95;;;;;;;23.30;42.06;101661.78;5088075;28;20278;-68
2023/09/25 11:08:22;;;;;;;1.10;1.00;;;;;;;23.22;41.70;101658.59;5091602;28;20291;-69
2023/09/25 11:10:50;;;;;;;1.50;1.00;;;;;;;22.96;41.99;101652.56;5091620;28;20249;-66
2023/09/25 11:13:19;;;;;;;2.80;1.13;;;;;;;22.92;42.98;101653.59;5089915;28;20228;-67
2023/09/25 11:15:48;;;;;;;1.98;1.17;;;;;;;23.02;42.66;101644.44;5085414;28;20197;-69
2023/09/25 11:18:19;;;;;;;1.77;1.17;;;;;;;23.17;42.54;101647.41;5087599;28;20210;-67
2023/09/25 11:20:48;;;;;;;2.63;1.40;;;;;;;23.25;42.11;101642.72;5078716;28;20269;-67
2023/09/25 11:23:17;;;;;;;2.40;1.47;;;;;;;23.34;42.17;101644.97;5079179;28;20935;-67
2023/09/25 11:25:52;;;;;;;4.70;1.00;;;;;;;23.37;42.32;101640.44;5085647;28;20221;-65
2023/09/25 11:28:21;;;;;;;2.88;1.00;;;;;;;23.47;42.73;101646.19;5085567;28;20295;-62
2023/09/25 11:30:51;;;;;;;1.20;1.10;;;;;;;23.49;42.45;101644.38;5091030;28;20280;-62
2023/09/25 11:33:21;;;;;;;2.08;1.10;;;;;;;23.47;42.71;101645.34;5087386;28;20200;-60